Barkersville, New York
Current Conditions -  °F | °C
As of 11:55 AM on Wednesday 22 Oct 2014 (Local Time) from KNY0 Reporting Station
Overcast Overcast  
Wind Chill:   Ceiling: 3400
Heat Index:   Visibility: 10mi
Dew Point:   Wind: 12mph
Humidity: 83%   Direction: 40°NE
Pressure: 30.1"   Gusts: 20mph
Location:  43.1097°N, 74.0176°W
Report Text: KNY0 221555Z AUTO 04010G17KT 10SM SCT026 BKN034 OVC046 09/06 A3010 RMK AO2 T00900063
Loading
Personal Weather Stations






























Interactive Weather Map
Tropical Storm Tracking
New forecast layout! Learn more

10-Day Weather Forecast

Advertisements
Track Severe Weather on mobile